sensor_id;sensor_type;location;lat;lon;timestamp;pressure;altitude;pressure_sealevel;temperature;humidity
24031;BME280;12240;51.142;22.486;2023-04-01T00:01:16;97628.56;;;7.84;100.00
24031;BME280;12240;51.142;22.486;2023-04-01T00:03:44;97628.41;;;7.77;100.00
24031;BME280;12240;51.142;22.486;2023-04-01T00:06:16;97625.66;;;7.71;100.00
24031;BME280;12240;51.142;22.486;2023-04-01T00:08:45;97620.44;;;7.63;100.00
24031;BME280;12240;51.142;22.486;2023-04-01T00:11:15;97618.47;;;7.57;100.00
24031;BME280;12240;51.142;22.486;2023-04-01T00:13:44;97617.53;;;7.50;100.00
24031;BME280;12240;51.142;22.486;2023-04-01T00:16:12;97613.78;;;7.44;100.00
24031;BME280;12240;51.142;22.486;2023-04-01T00:18:50;97615.75;;;7.42;100.00
24031;BME280;12240;51.142;22.486;2023-04-01T00:21:19;97614.81;;;7.35;100.00
24031;BME280;12240;51.142;22.486;2023-04-01T00:23:50;97612.69;;;7.31;100.00
24031;BME280;12240;51.142;22.486;2023-04-01T00:26:20;97603.94;;;7.30;100.00
24031;BME280;12240;51.142;22.486;2023-04-01T00:28:50;97601.94;;;7.32;100.00
24031;BME280;12240;51.142;22.486;2023-04-01T00:31:18;97603.75;;;7.32;100.00
24031;BME280;12240;51.142;22.486;2023-04-01T00:33:47;97604.75;;;7.31;100.00
24031;BME280;12240;51.142;22.486;2023-04-01T00:36:19;97610.53;;;7.34;100.00
24031;BME280;12240;51.142;22.486;2023-04-01T00:38:47;97613.19;;;7.34;100.00
24031;BME280;12240;51.142;22.486;2023-04-01T00:41:17;97607.53;;;7.37;100.00
24031;BME280;12240;51.142;22.486;2023-04-01T00:43:48;97604.53;;;7.40;100.00
24031;BME280;12240;51.142;22.486;2023-04-01T00:46:18;97599.22;;;7.40;100.00
24031;BME280;12240;51.142;22.486;2023-04-01T00:48:53;97597.22;;;7.42;100.00
24031;BME280;12240;51.142;22.486;2023-04-01T00:51:27;97590.59;;;7.46;100.00
24031;BME280;12240;51.142;22.486;2023-04-01T00:53:59;97602.63;;;7.49;100.00
24031;BME280;12240;51.142;22.486;2023-04-01T00:56:37;97603.75;;;7.54;100.00
24031;BME280;12240;51.142;22.486;2023-04-01T00:59:13;97603.75;;;7.54;100.00
24031;BME280;12240;51.142;22.486;2023-04-01T01:01:42;97589.81;;;7.60;100.00
24031;BME280;12240;51.142;22.486;2023-04-01T01:04:32;97587.81;;;7.62;100.00
24031;BME280;12240;51.142;22.486;2023-04-01T01:07:35;97588.47;;;7.64;100.00
24031;BME280;12240;51.142;22.486;2023-04-01T01:10:35;97600.34;;;7.68;100.00
24031;BME280;12240;51.142;22.486;2023-04-01T01:16:25;97571.44;;;7.81;100.00
24031;BME280;12240;51.142;22.486;2023-04-01T01:27:38;97567.59;;;7.84;100.00
24031;BME280;12240;51.142;22.486;2023-04-01T01:30:13;97564.97;;;7.84;100.00
24031;BME280;12240;51.142;22.486;2023-04-01T01:32:55;97573.56;;;7.86;100.00
24031;BME280;12240;51.142;22.486;2023-04-01T01:35:51;97568.53;;;7.91;100.00
24031;BME280;12240;51.142;22.486;2023-04-01T01:38:24;97561.22;;;7.93;100.00
24031;BME280;12240;51.142;22.486;2023-04-01T01:41:07;97557.41;;;7.95;100.00
24031;BME280;12240;51.142;22.486;2023-04-01T01:43:42;97560.50;;;7.99;100.00
24031;BME280;12240;51.142;22.486;2023-04-01T01:46:24;97550.94;;;7.98;100.00
24031;BME280;12240;51.142;22.486;2023-04-01T01:48:55;97550.94;;;7.98;100.00
24031;BME280;12240;51.142;22.486;2023-04-01T01:51:26;97555.22;;;7.99;100.00
24031;BME280;12240;51.142;22.486;2023-04-01T01:53:57;97550.09;;;7.97;100.00
24031;BME280;12240;51.142;22.486;2023-04-01T01:56:28;97552.75;;;7.97;100.00
24031;BME280;12240;51.142;22.486;2023-04-01T01:59:05;97553.38;;;7.99;100.00
24031;BME280;12240;51.142;22.486;2023-04-01T02:01:44;97544.69;;;8.05;100.00
24031;BME280;12240;51.142;22.486;2023-04-01T02:04:17;97542.69;;;8.07;100.00
24031;BME280;12240;51.142;22.486;2023-04-01T02:07:00;97543.72;;;8.06;100.00
24031;BME280;12240;51.142;22.486;2023-04-01T02:09:31;97541.59;;;8.02;100.00
24031;BME280;12240;51.142;22.486;2023-04-01T02:12:09;97540.75;;;8.01;100.00
24031;BME280;12240;51.142;22.486;2023-04-01T02:17:29;97537.50;;;7.99;100.00
24031;BME280;12240;51.142;22.486;2023-04-01T02:20:13;97532.72;;;7.95;100.00
24031;BME280;12240;51.142;22.486;2023-04-01T02:22:54;97545.69;;;7.90;100.00
24031;BME280;12240;51.142;22.486;2023-04-01T02:25:28;97546.88;;;7.87;100.00
24031;BME280;12240;51.142;22.486;2023-04-01T02:27:58;97537.44;;;7.85;100.00
24031;BME280;12240;51.142;22.486;2023-04-01T02:30:29;97538.19;;;7.79;100.00
24031;BME280;12240;51.142;22.486;2023-04-01T02:32:59;97528.75;;;7.76;100.00
24031;BME280;12240;51.142;22.486;2023-04-01T02:35:27;97530.56;;;7.76;100.00
24031;BME280;12240;51.142;22.486;2023-04-01T02:37:56;97535.25;;;7.74;100.00
24031;BME280;12240;51.142;22.486;2023-04-01T02:40:24;97537.72;;;7.75;100.00
24031;BME280;12240;51.142;22.486;2023-04-01T02:42:52;97546.19;;;7.71;100.00
24031;BME280;12240;51.142;22.486;2023-04-01T02:45:20;97554.13;;;7.71;100.00
24031;BME280;12240;51.142;22.486;2023-04-01T02:47:49;97551.47;;;7.71;100.00
24031;BME280;12240;51.142;22.486;2023-04-01T02:50:17;97552.69;;;7.68;100.00
24031;BME280;12240;51.142;22.486;2023-04-01T02:52:45;97549.19;;;7.68;100.00
24031;BME280;12240;51.142;22.486;2023-04-01T02:55:14;97545.91;;;7.66;100.00
24031;BME280;12240;51.142;22.486;2023-04-01T02:57:42;97545.09;;;7.65;100.00
24031;BME280;12240;51.142;22.486;2023-04-01T03:00:11;97539.47;;;7.60;100.00
24031;BME280;12240;51.142;22.486;2023-04-01T03:02:40;97546.81;;;7.58;100.00
24031;BME280;12240;51.142;22.486;2023-04-01T03:05:09;97536.38;;;7.57;100.00
24031;BME280;12240;51.142;22.486;2023-04-01T03:07:37;97534.53;;;7.57;100.00
24031;BME280;12240;51.142;22.486;2023-04-01T03:10:07;97547.31;;;7.54;100.00
24031;BME280;12240;51.142;22.486;2023-04-01T03:12:35;97541.66;;;7.57;100.00
24031;BME280;12240;51.142;22.486;2023-04-01T03:15:05;97542.66;;;7.56;100.00
24031;BME280;12240;51.142;22.486;2023-04-01T03:17:39;97543.88;;;7.53;100.00
24031;BME280;12240;51.142;22.486;2023-04-01T03:20:09;97546.34;;;7.55;100.00
24031;BME280;12240;51.142;22.486;2023-04-01T03:22:38;97557.91;;;7.54;100.00
24031;BME280;12240;51.142;22.486;2023-04-01T03:25:10;97565.97;;;7.60;100.00
24031;BME280;12240;51.142;22.486;2023-04-01T03:27:39;97559.31;;;7.64;100.00
24031;BME280;12240;51.142;22.486;2023-04-01T03:30:09;97562.91;;;7.71;100.00
24031;BME280;12240;51.142;22.486;2023-04-01T03:32:46;97569.69;;;7.74;100.00
24031;BME280;12240;51.142;22.486;2023-04-01T03:35:14;97568.31;;;7.78;100.00
24031;BME280;12240;51.142;22.486;2023-04-01T03:37:42;97565.94;;;7.83;100.00
24031;BME280;12240;51.142;22.486;2023-04-01T03:40:11;97570.06;;;7.85;100.00
24031;BME280;12240;51.142;22.486;2023-04-01T03:42:39;97575.38;;;7.85;100.00
24031;BME280;12240;51.142;22.486;2023-04-01T03:45:08;97575.38;;;7.85;100.00
24031;BME280;12240;51.142;22.486;2023-04-01T03:47:40;97585.97;;;7.85;100.00
24031;BME280;12240;51.142;22.486;2023-04-01T03:50:09;97583.50;;;7.84;100.00
24031;BME280;12240;51.142;22.486;2023-04-01T03:52:37;97578.22;;;7.84;100.00
24031;BME280;12240;51.142;22.486;2023-04-01T03:55:06;97570.97;;;7.78;100.00
24031;BME280;12240;51.142;22.486;2023-04-01T03:57:37;97571.78;;;7.78;100.00
24031;BME280;12240;51.142;22.486;2023-04-01T04:00:15;97585.03;;;7.78;100.00
24031;BME280;12240;51.142;22.486;2023-04-01T04:02:46;97578.53;;;7.81;100.00
24031;BME280;12240;51.142;22.486;2023-04-01T04:05:20;97579.84;;;7.85;100.00
24031;BME280;12240;51.142;22.486;2023-04-01T04:07:50;97586.63;;;7.87;100.00
24031;BME280;12240;51.142;22.486;2023-04-01T04:10:20;97594.22;;;7.90;100.00
24031;BME280;12240;51.142;22.486;2023-04-01T04:12:51;97591.56;;;7.90;100.00
24031;BME280;12240;51.142;22.486;2023-04-01T04:15:22;97595.19;;;7.89;100.00
24031;BME280;12240;51.142;22.486;2023-04-01T04:17:51;97595.84;;;7.91;100.00
24031;BME280;12240;51.142;22.486;2023-04-01T04:20:19;97592.53;;;7.89;100.00
24031;BME280;12240;51.142;22.486;2023-04-01T04:22:47;97598.69;;;7.90;100.00
24031;BME280;12240;51.142;22.486;2023-04-01T04:25:15;97595.56;;;7.86;100.00
24031;BME280;12240;51.142;22.486;2023-04-01T04:27:44;97584.78;;;7.88;100.00
24031;BME280;12240;51.142;22.486;2023-04-01T04:30:14;97581.84;;;7.83;100.00
24031;BME280;12240;51.142;22.486;2023-04-01T04:32:42;97585.50;;;7.82;100.00
24031;BME280;12240;51.142;22.486;2023-04-01T04:35:12;97592.16;;;7.78;100.00
24031;BME280;12240;51.142;22.486;2023-04-01T04:37:40;97589.97;;;7.81;100.00
24031;BME280;12240;51.142;22.486;2023-04-01T04:40:10;97587.97;;;7.83;100.00
24031;BME280;12240;51.142;22.486;2023-04-01T04:42:39;97589.63;;;7.84;100.00
24031;BME280;12240;51.142;22.486;2023-04-01T04:45:11;97588.44;;;7.87;100.00
24031;BME280;12240;51.142;22.486;2023-04-01T04:47:47;97585.16;;;7.85;100.00
24031;BME280;12240;51.142;22.486;2023-04-01T04:50:15;97586.81;;;7.86;100.00
24031;BME280;12240;51.142;22.486;2023-04-01T04:52:44;97588.91;;;7.90;100.00
24031;BME280;12240;51.142;22.486;2023-04-01T04:55:12;97587.25;;;7.89;100.00
24031;BME280;12240;51.142;22.486;2023-04-01T04:57:45;97587.09;;;7.91;100.00
24031;BME280;12240;51.142;22.486;2023-04-01T05:00:13;97594.41;;;7.89;100.00
24031;BME280;12240;51.142;22.486;2023-04-01T05:02:54;97584.59;;;7.89;100.00
24031;BME280;12240;51.142;22.486;2023-04-01T05:05:22;97596.56;;;7.85;100.00
24031;BME280;12240;51.142;22.486;2023-04-01T05:07:50;97598.69;;;7.90;100.00
24031;BME280;12240;51.142;22.486;2023-04-01T05:10:19;97597.50;;;7.92;100.00
24031;BME280;12240;51.142;22.486;2023-04-01T05:12:49;97596.69;;;7.92;100.00
24031;BME280;12240;51.142;22.486;2023-04-01T05:15:21;97601.16;;;7.91;100.00
24031;BME280;12240;51.142;22.486;2023-04-01T05:17:49;97599.34;;;7.92;100.00
24031;BME280;12240;51.142;22.486;2023-04-01T05:20:18;97602.09;;;7.98;100.00
24031;BME280;12240;51.142;22.486;2023-04-01T05:22:46;97606.41;;;7.99;100.00
24031;BME280;12240;51.142;22.486;2023-04-01T05:25:14;97598.09;;;8.02;100.00
24031;BME280;12240;51.142;22.486;2023-04-01T05:27:43;97594.22;;;8.05;100.00
24031;BME280;12240;51.142;22.486;2023-04-01T05:30:11;97596.53;;;8.08;100.00
24031;BME280;12240;51.142;22.486;2023-04-01T05:32:56;97597.00;;;8.11;100.00
24031;BME280;12240;51.142;22.486;2023-04-01T05:35:25;97603.59;;;8.15;100.00
24031;BME280;12240;51.142;22.486;2023-04-01T05:37:53;97595.81;;;8.14;100.00
24031;BME280;12240;51.142;22.486;2023-04-01T05:40:22;97590.78;;;8.19;100.00
24031;BME280;12240;51.142;22.486;2023-04-01T05:42:50;97597.75;;;8.20;100.00
24031;BME280;12240;51.142;22.486;2023-04-01T05:45:18;97602.69;;;8.23;100.00
24031;BME280;12240;51.142;22.486;2023-04-01T05:48:10;97603.38;;;8.25;100.00
24031;BME280;12240;51.142;22.486;2023-04-01T05:50:41;97602.81;;;8.30;100.00
24031;BME280;12240;51.142;22.486;2023-04-01T05:53:11;97603.09;;;8.35;100.00
24031;BME280;12240;51.142;22.486;2023-04-01T05:55:43;97600.91;;;8.38;100.00
24031;BME280;12240;51.142;22.486;2023-04-01T05:58:11;97607.50;;;8.42;100.00
24031;BME280;12240;51.142;22.486;2023-04-01T06:00:42;97609.97;;;8.44;100.00
24031;BME280;12240;51.142;22.486;2023-04-01T06:03:12;97609.22;;;8.50;100.00
24031;BME280;12240;51.142;22.486;2023-04-01T06:05:43;97597.91;;;8.56;100.00
24031;BME280;12240;51.142;22.486;2023-04-01T06:08:15;97609.97;;;8.58;100.00
24031;BME280;12240;51.142;22.486;2023-04-01T06:23:28;97601.09;;;8.66;100.00
24031;BME280;12240;51.142;22.486;2023-04-01T06:53:40;97629.00;;;9.41;100.00
24031;BME280;12240;51.142;22.486;2023-04-01T06:56:40;97619.72;;;9.52;100.00
24031;BME280;12240;51.142;22.486;2023-04-01T06:59:17;97624.13;;;9.59;100.00
24031;BME280;12240;51.142;22.486;2023-04-01T07:01:57;97625.38;;;9.63;100.00
24031;BME280;12240;51.142;22.486;2023-04-01T07:04:32;97631.13;;;9.88;100.00
24031;BME280;12240;51.142;22.486;2023-04-01T07:07:05;97625.88;;;9.94;100.00
24031;BME280;12240;51.142;22.486;2023-04-01T07:09:59;97624.81;;;10.31;100.00
24031;BME280;12240;51.142;22.486;2023-04-01T07:15:28;97628.78;;;11.10;100.00
24031;BME280;12240;51.142;22.486;2023-04-01T07:18:16;97615.31;;;11.18;100.00
24031;BME280;12240;51.142;22.486;2023-04-01T07:20:47;97608.88;;;11.59;100.00
24031;BME280;12240;51.142;22.486;2023-04-01T07:23:28;97612.03;;;11.83;100.00
24031;BME280;12240;51.142;22.486;2023-04-01T07:26:20;97599.34;;;12.37;100.00
24031;BME280;12240;51.142;22.486;2023-04-01T07:29:13;97594.72;;;12.83;100.00
24031;BME280;12240;51.142;22.486;2023-04-01T07:32:26;97593.47;;;12.99;100.00
24031;BME280;12240;51.142;22.486;2023-04-01T07:39:17;97582.72;;;13.62;100.00
24031;BME280;12240;51.142;22.486;2023-04-01T07:42:28;97586.19;;;13.69;100.00
24031;BME280;12240;51.142;22.486;2023-04-01T07:45:34;97580.44;;;13.66;100.00
24031;BME280;12240;51.142;22.486;2023-04-01T07:57:33;97565.56;;;13.39;100.00
24031;BME280;12240;51.142;22.486;2023-04-01T08:00:20;97559.91;;;13.60;100.00
24031;BME280;12240;51.142;22.486;2023-04-01T08:14:52;97561.38;;;13.56;100.00
24031;BME280;12240;51.142;22.486;2023-04-01T08:20:55;97570.94;;;14.50;100.00
24031;BME280;12240;51.142;22.486;2023-04-01T08:23:31;97553.56;;;14.77;100.00
24031;BME280;12240;51.142;22.486;2023-04-01T08:29:10;97548.22;;;14.95;100.00
24031;BME280;12240;51.142;22.486;2023-04-01T08:31:57;97555.41;;;14.41;100.00
24031;BME280;12240;51.142;22.486;2023-04-01T08:34:42;97557.28;;;14.58;100.00
24031;BME280;12240;51.142;22.486;2023-04-01T08:37:31;97556.19;;;13.92;100.00
24031;BME280;12240;51.142;22.486;2023-04-01T08:43:27;97549.91;;;13.80;100.00
24031;BME280;12240;51.142;22.486;2023-04-01T08:57:37;97538.28;;;14.42;100.00
24031;BME280;12240;51.142;22.486;2023-04-01T09:18:39;97534.44;;;15.58;100.00
24031;BME280;12240;51.142;22.486;2023-04-01T09:33:09;97545.34;;;14.36;100.00
24031;BME280;12240;51.142;22.486;2023-04-01T09:38:58;97540.78;;;14.12;100.00
24031;BME280;12240;51.142;22.486;2023-04-01T09:45:01;97531.84;;;15.03;100.00
24031;BME280;12240;51.142;22.486;2023-04-01T09:54:00;97535.19;;;14.20;100.00
24031;BME280;12240;51.142;22.486;2023-04-01T10:10:06;97557.00;;;13.92;100.00
24031;BME280;12240;51.142;22.486;2023-04-01T10:52:27;97548.06;;;14.05;100.00
24031;BME280;12240;51.142;22.486;2023-04-01T10:56:15;97551.28;;;14.38;100.00
24031;BME280;12240;51.142;22.486;2023-04-01T11:00:21;97549.41;;;14.63;100.00
24031;BME280;12240;51.142;22.486;2023-04-01T11:23:14;97539.09;;;14.18;100.00
24031;BME280;12240;51.142;22.486;2023-04-01T11:41:40;97558.13;;;13.47;100.00
24031;BME280;12240;51.142;22.486;2023-04-01T11:44:30;97570.22;;;13.19;100.00
24031;BME280;12240;51.142;22.486;2023-04-01T12:08:43;97600.66;;;11.48;100.00
24031;BME280;12240;51.142;22.486;2023-04-01T12:14:31;97615.75;;;11.28;100.00
24031;BME280;12240;51.142;22.486;2023-04-01T13:02:37;97644.06;;;21.12;100.00
24031;BME280;12240;51.142;22.486;2023-04-01T13:03:27;97652.63;;;21.36;100.00
24031;BME280;12240;51.142;22.486;2023-04-01T13:29:35;97704.78;;;21.68;100.00
24031;BME280;12240;51.142;22.486;2023-04-01T13:34:24;97705.31;;;22.17;100.00
24031;BME280;12240;51.142;22.486;2023-04-01T13:35:26;97701.50;;;22.23;100.00
24031;BME280;12240;51.142;22.486;2023-04-01T13:36:28;97706.94;;;22.33;100.00
24031;BME280;12240;51.142;22.486;2023-04-01T13:37:15;97699.94;;;22.42;100.00
24031;BME280;12240;51.142;22.486;2023-04-01T13:39:06;97702.44;;;22.63;100.00
24031;BME280;12240;51.142;22.486;2023-04-01T13:46:34;97620.44;;;18.50;100.00
24031;BME280;12240;51.142;22.486;2023-04-01T13:47:43;97620.16;;;17.62;100.00
24031;BME280;12240;51.142;22.486;2023-04-01T13:49:31;97629.69;;;15.31;100.00
24031;BME280;12240;51.142;22.486;2023-04-01T13:56:03;97652.88;;;13.07;100.00
24031;BME280;12240;51.142;22.486;2023-04-01T13:59:25;97662.38;;;12.70;100.00
24031;BME280;12240;51.142;22.486;2023-04-01T14:26:24;97681.47;;;12.80;100.00
24031;BME280;12240;51.142;22.486;2023-04-01T14:35:21;97675.53;;;12.65;100.00
24031;BME280;12240;51.142;22.486;2023-04-01T14:38:23;97677.78;;;12.42;100.00
24031;BME280;12240;51.142;22.486;2023-04-01T14:49:41;97690.31;;;12.48;100.00
24031;BME280;12240;51.142;22.486;2023-04-01T14:54:50;97692.34;;;12.27;100.00
24031;BME280;12240;51.142;22.486;2023-04-01T14:57:29;97692.97;;;12.29;100.00
24031;BME280;12240;51.142;22.486;2023-04-01T15:02:50;97697.03;;;12.05;100.00
24031;BME280;12240;51.142;22.486;2023-04-01T15:05:47;97701.25;;;11.73;100.00
24031;BME280;12240;51.142;22.486;2023-04-01T15:08:33;97704.84;;;11.59;100.00
24031;BME280;12240;51.142;22.486;2023-04-01T15:20:17;97732.72;;;9.33;100.00
24031;BME280;12240;51.142;22.486;2023-04-01T15:23:31;97739.13;;;8.95;100.00
24031;BME280;12240;51.142;22.486;2023-04-01T15:32:19;97739.13;;;9.38;100.00
24031;BME280;12240;51.142;22.486;2023-04-01T15:38:23;97732.03;;;9.60;100.00
24031;BME280;12240;51.142;22.486;2023-04-01T15:48:19;97741.88;;;9.16;100.00
24031;BME280;12240;51.142;22.486;2023-04-01T15:54:15;97746.47;;;8.70;100.00
24031;BME280;12240;51.142;22.486;2023-04-01T15:57:08;97770.81;;;8.74;100.00
24031;BME280;12240;51.142;22.486;2023-04-01T16:21:05;97765.94;;;8.85;100.00
24031;BME280;12240;51.142;22.486;2023-04-01T16:23:57;97767.75;;;8.85;100.00
24031;BME280;12240;51.142;22.486;2023-04-01T16:27:24;97766.91;;;8.84;100.00
24031;BME280;12240;51.142;22.486;2023-04-01T16:33:50;97778.78;;;8.74;100.00
24031;BME280;12240;51.142;22.486;2023-04-01T16:36:27;97778.31;;;8.70;100.00
24031;BME280;12240;51.142;22.486;2023-04-01T16:39:44;97780.00;;;8.71;100.00
24031;BME280;12240;51.142;22.486;2023-04-01T16:42:53;97759.88;;;8.77;100.00
24031;BME280;12240;51.142;22.486;2023-04-01T16:45:41;97767.56;;;8.72;100.00
24031;BME280;12240;51.142;22.486;2023-04-01T16:48:22;97773.66;;;8.58;100.00
24031;BME280;12240;51.142;22.486;2023-04-01T16:51:09;97775.56;;;8.64;100.00
24031;BME280;12240;51.142;22.486;2023-04-01T16:54:04;97773.19;;;8.69;100.00
24031;BME280;12240;51.142;22.486;2023-04-01T17:00:02;97775.75;;;8.62;100.00
24031;BME280;12240;51.142;22.486;2023-04-01T17:02:38;97779.16;;;8.71;100.00
24031;BME280;12240;51.142;22.486;2023-04-01T17:05:12;97775.63;;;8.78;100.00
24031;BME280;12240;51.142;22.486;2023-04-01T17:08:00;97780.75;;;8.80;100.00
24031;BME280;12240;51.142;22.486;2023-04-01T17:10:57;97779.38;;;8.84;100.00
24031;BME280;12240;51.142;22.486;2023-04-01T17:17:42;97770.78;;;8.82;100.00
24031;BME280;12240;51.142;22.486;2023-04-01T17:20:30;97776.28;;;8.80;100.00
24031;BME280;12240;51.142;22.486;2023-04-01T17:23:30;97776.97;;;8.74;100.00
24031;BME280;12240;51.142;22.486;2023-04-01T17:37:41;97808.16;;;8.72;100.00
24031;BME280;12240;51.142;22.486;2023-04-01T17:48:49;97810.31;;;8.54;100.00
24031;BME280;12240;51.142;22.486;2023-04-01T17:51:55;97804.34;;;8.52;100.00
24031;BME280;12240;51.142;22.486;2023-04-01T17:59:39;97817.97;;;8.49;100.00
24031;BME280;12240;51.142;22.486;2023-04-01T18:03:12;97827.47;;;8.44;100.00
24031;BME280;12240;51.142;22.486;2023-04-01T18:15:11;97830.59;;;8.47;100.00
24031;BME280;12240;51.142;22.486;2023-04-01T18:18:30;97847.97;;;8.50;100.00
24031;BME280;12240;51.142;22.486;2023-04-01T18:23:58;97845.00;;;8.45;100.00
24031;BME280;12240;51.142;22.486;2023-04-01T18:26:35;97850.47;;;8.51;100.00
24031;BME280;12240;51.142;22.486;2023-04-01T18:29:45;97849.16;;;8.47;100.00
24031;BME280;12240;51.142;22.486;2023-04-01T18:38:36;97844.25;;;8.59;100.00
24031;BME280;12240;51.142;22.486;2023-04-01T18:41:21;97846.06;;;8.58;100.00
24031;BME280;12240;51.142;22.486;2023-04-01T18:52:58;97849.09;;;8.55;100.00
24031;BME280;12240;51.142;22.486;2023-04-01T18:58:45;97860.94;;;8.45;100.00
24031;BME280;12240;51.142;22.486;2023-04-01T19:01:33;97862.41;;;8.47;100.00
24031;BME280;12240;51.142;22.486;2023-04-01T19:10:31;97863.59;;;8.45;100.00
24031;BME280;12240;51.142;22.486;2023-04-01T19:16:41;97868.88;;;8.45;100.00
24031;BME280;12240;51.142;22.486;2023-04-01T19:21:55;97875.22;;;8.44;100.00
24031;BME280;12240;51.142;22.486;2023-04-01T19:27:35;97878.50;;;8.46;100.00
24031;BME280;12240;51.142;22.486;2023-04-01T19:36:38;97883.63;;;8.47;100.00
24031;BME280;12240;51.142;22.486;2023-04-01T19:39:56;97884.63;;;8.46;100.00
24031;BME280;12240;51.142;22.486;2023-04-01T19:42:59;97892.75;;;8.45;100.00
24031;BME280;12240;51.142;22.486;2023-04-01T19:45:57;97886.00;;;8.42;100.00
24031;BME280;12240;51.142;22.486;2023-04-01T19:51:29;97891.31;;;8.42;100.00
24031;BME280;12240;51.142;22.486;2023-04-01T19:57:22;97895.88;;;8.48;100.00
24031;BME280;12240;51.142;22.486;2023-04-01T20:02:59;97904.97;;;8.54;100.00
24031;BME280;12240;51.142;22.486;2023-04-01T20:17:07;97897.44;;;8.43;100.00
24031;BME280;12240;51.142;22.486;2023-04-01T20:51:06;97932.91;;;8.42;100.00
24031;BME280;12240;51.142;22.486;2023-04-01T21:11:01;97944.53;;;8.33;100.00
24031;BME280;12240;51.142;22.486;2023-04-01T21:41:17;97955.69;;;8.28;100.00
24031;BME280;12240;51.142;22.486;2023-04-01T21:47:08;97957.50;;;8.19;100.00
24031;BME280;12240;51.142;22.486;2023-04-01T21:53:27;97962.31;;;8.16;100.00
24031;BME280;12240;51.142;22.486;2023-04-01T22:08:29;97974.06;;;8.21;100.00
24031;BME280;12240;51.142;22.486;2023-04-01T22:11:30;97973.06;;;8.22;100.00
24031;BME280;12240;51.142;22.486;2023-04-01T22:17:00;97976.56;;;8.23;100.00
24031;BME280;12240;51.142;22.486;2023-04-01T22:19:59;97979.25;;;8.15;100.00
24031;BME280;12240;51.142;22.486;2023-04-01T22:29:04;97997.66;;;8.00;100.00
24031;BME280;12240;51.142;22.486;2023-04-01T22:32:02;97981.13;;;7.90;100.00
24031;BME280;12240;51.142;22.486;2023-04-01T22:34:49;97998.53;;;7.85;100.00
24031;BME280;12240;51.142;22.486;2023-04-01T22:43:20;98005.16;;;7.73;100.00
24031;BME280;12240;51.142;22.486;2023-04-01T22:51:57;98007.31;;;7.69;100.00
24031;BME280;12240;51.142;22.486;2023-04-01T22:54:50;98002.88;;;7.62;100.00
24031;BME280;12240;51.142;22.486;2023-04-01T22:58:15;98008.31;;;7.68;100.00
24031;BME280;12240;51.142;22.486;2023-04-01T23:00:49;98007.31;;;7.69;100.00
24031;BME280;12240;51.142;22.486;2023-04-01T23:06:01;98011.31;;;7.49;100.00
24031;BME280;12240;51.142;22.486;2023-04-01T23:09:05;98016.63;;;7.49;100.00
24031;BME280;12240;51.142;22.486;2023-04-01T23:11:55;98021.41;;;7.54;100.00
24031;BME280;12240;51.142;22.486;2023-04-01T23:17:33;98029.19;;;7.47;100.00
24031;BME280;12240;51.142;22.486;2023-04-01T23:26:25;98037.63;;;7.35;100.00
24031;BME280;12240;51.142;22.486;2023-04-01T23:29:00;98047.72;;;7.31;100.00
24031;BME280;12240;51.142;22.486;2023-04-01T23:31:45;98056.16;;;7.35;100.00
24031;BME280;12240;51.142;22.486;2023-04-01T23:34:21;98057.00;;;7.27;100.00
24031;BME280;12240;51.142;22.486;2023-04-01T23:36:54;98053.66;;;7.17;100.00
24031;BME280;12240;51.142;22.486;2023-04-01T23:39:34;98059.09;;;7.16;100.00
24031;BME280;12240;51.142;22.486;2023-04-01T23:42:19;98060.94;;;7.15;100.00
24031;BME280;12240;51.142;22.486;2023-04-01T23:44:53;98067.53;;;7.11;100.00
24031;BME280;12240;51.142;22.486;2023-04-01T23:47:29;98068.50;;;7.02;100.00
24031;BME280;12240;51.142;22.486;2023-04-01T23:50:20;98072.81;;;7.03;100.00
24031;BME280;12240;51.142;22.486;2023-04-01T23:53:00;98069.84;;;7.06;100.00
24031;BME280;12240;51.142;22.486;2023-04-01T23:55:33;98084.88;;;7.05;100.00
